sensor_id;sensor_type;location;lat;lon;timestamp;P1;durP1;ratioP1;P2;durP2;ratioP2
32082;SDS011;18597;48.328;7.932;2023-06-14T00:01:45;5.27;;;4.97;;
32082;SDS011;18597;48.328;7.932;2023-06-14T00:04:12;6.33;;;4.97;;
32082;SDS011;18597;48.328;7.932;2023-06-14T00:06:39;19.77;;;5.33;;
32082;SDS011;18597;48.328;7.932;2023-06-14T00:09:06;4.77;;;4.37;;
32082;SDS011;18597;48.328;7.932;2023-06-14T00:11:33;6.40;;;5.90;;
32082;SDS011;18597;48.328;7.932;2023-06-14T00:13:59;5.30;;;4.80;;
32082;SDS011;18597;48.328;7.932;2023-06-14T00:16:25;5.43;;;4.90;;
32082;SDS011;18597;48.328;7.932;2023-06-14T00:18:51;5.60;;;5.13;;
32082;SDS011;18597;48.328;7.932;2023-06-14T00:21:17;5.57;;;4.83;;
32082;SDS011;18597;48.328;7.932;2023-06-14T00:23:43;5.90;;;5.30;;
32082;SDS011;18597;48.328;7.932;2023-06-14T00:26:09;5.60;;;5.30;;
32082;SDS011;18597;48.328;7.932;2023-06-14T00:28:35;5.60;;;5.20;;
32082;SDS011;18597;48.328;7.932;2023-06-14T00:31:01;5.20;;;4.53;;
32082;SDS011;18597;48.328;7.932;2023-06-14T00:33:27;6.87;;;5.37;;
32082;SDS011;18597;48.328;7.932;2023-06-14T00:35:53;4.90;;;4.60;;
32082;SDS011;18597;48.328;7.932;2023-06-14T00:38:19;7.23;;;4.80;;
32082;SDS011;18597;48.328;7.932;2023-06-14T00:40:46;6.43;;;5.53;;
32082;SDS011;18597;48.328;7.932;2023-06-14T00:43:12;5.93;;;5.50;;
32082;SDS011;18597;48.328;7.932;2023-06-14T00:45:38;6.50;;;5.57;;
32082;SDS011;18597;48.328;7.932;2023-06-14T00:48:04;5.40;;;5.03;;
32082;SDS011;18597;48.328;7.932;2023-06-14T00:50:31;5.17;;;4.70;;
32082;SDS011;18597;48.328;7.932;2023-06-14T00:52:58;5.83;;;5.30;;
32082;SDS011;18597;48.328;7.932;2023-06-14T00:55:26;7.07;;;6.47;;
32082;SDS011;18597;48.328;7.932;2023-06-14T00:57:54;5.80;;;5.30;;
32082;SDS011;18597;48.328;7.932;2023-06-14T01:00:21;8.87;;;5.53;;
32082;SDS011;18597;48.328;7.932;2023-06-14T01:02:47;5.50;;;5.10;;
32082;SDS011;18597;48.328;7.932;2023-06-14T01:05:14;7.60;;;5.20;;
32082;SDS011;18597;48.328;7.932;2023-06-14T01:07:45;4.90;;;4.60;;
32082;SDS011;18597;48.328;7.932;2023-06-14T01:10:56;7.10;;;5.30;;
32082;SDS011;18597;48.328;7.932;2023-06-14T01:13:47;5.87;;;5.37;;
32082;SDS011;18597;48.328;7.932;2023-06-14T01:16:15;7.30;;;4.70;;
32082;SDS011;18597;48.328;7.932;2023-06-14T01:18:43;5.30;;;4.80;;
32082;SDS011;18597;48.328;7.932;2023-06-14T01:21:28;6.20;;;5.43;;
32082;SDS011;18597;48.328;7.932;2023-06-14T01:23:54;11.30;;;5.33;;
32082;SDS011;18597;48.328;7.932;2023-06-14T01:26:22;7.47;;;5.77;;
32082;SDS011;18597;48.328;7.932;2023-06-14T01:28:48;6.73;;;5.67;;
32082;SDS011;18597;48.328;7.932;2023-06-14T01:31:17;5.50;;;5.10;;
32082;SDS011;18597;48.328;7.932;2023-06-14T01:33:47;6.13;;;4.87;;
32082;SDS011;18597;48.328;7.932;2023-06-14T01:36:16;5.97;;;5.37;;
32082;SDS011;18597;48.328;7.932;2023-06-14T01:38:45;8.27;;;5.57;;
32082;SDS011;18597;48.328;7.932;2023-06-14T01:41:14;6.90;;;5.70;;
32082;SDS011;18597;48.328;7.932;2023-06-14T01:43:43;5.27;;;4.73;;
32082;SDS011;18597;48.328;7.932;2023-06-14T01:46:10;6.63;;;6.00;;
32082;SDS011;18597;48.328;7.932;2023-06-14T01:48:36;5.80;;;5.20;;
32082;SDS011;18597;48.328;7.932;2023-06-14T01:51:02;7.10;;;5.23;;
32082;SDS011;18597;48.328;7.932;2023-06-14T01:53:28;7.20;;;5.40;;
32082;SDS011;18597;48.328;7.932;2023-06-14T01:55:54;9.20;;;5.30;;
32082;SDS011;18597;48.328;7.932;2023-06-14T01:58:20;5.77;;;5.07;;
32082;SDS011;18597;48.328;7.932;2023-06-14T02:00:46;6.57;;;4.60;;
32082;SDS011;18597;48.328;7.932;2023-06-14T02:03:12;4.97;;;4.50;;
32082;SDS011;18597;48.328;7.932;2023-06-14T02:05:38;6.27;;;5.67;;
32082;SDS011;18597;48.328;7.932;2023-06-14T02:08:05;8.57;;;5.17;;
32082;SDS011;18597;48.328;7.932;2023-06-14T02:10:31;5.40;;;4.90;;
32082;SDS011;18597;48.328;7.932;2023-06-14T02:12:57;5.43;;;4.97;;
32082;SDS011;18597;48.328;7.932;2023-06-14T02:15:23;6.13;;;5.27;;
32082;SDS011;18597;48.328;7.932;2023-06-14T02:17:48;5.93;;;5.53;;
32082;SDS011;18597;48.328;7.932;2023-06-14T02:20:14;6.67;;;5.37;;
32082;SDS011;18597;48.328;7.932;2023-06-14T02:22:40;6.40;;;5.77;;
32082;SDS011;18597;48.328;7.932;2023-06-14T02:25:07;5.43;;;5.03;;
32082;SDS011;18597;48.328;7.932;2023-06-14T02:27:33;5.87;;;5.30;;
32082;SDS011;18597;48.328;7.932;2023-06-14T02:30:00;5.50;;;5.00;;
32082;SDS011;18597;48.328;7.932;2023-06-14T02:32:26;10.93;;;5.33;;
32082;SDS011;18597;48.328;7.932;2023-06-14T02:34:52;5.43;;;5.10;;
32082;SDS011;18597;48.328;7.932;2023-06-14T02:37:19;11.43;;;5.40;;
32082;SDS011;18597;48.328;7.932;2023-06-14T02:39:45;4.83;;;4.43;;
32082;SDS011;18597;48.328;7.932;2023-06-14T02:42:11;5.70;;;5.30;;
32082;SDS011;18597;48.328;7.932;2023-06-14T02:44:37;6.67;;;5.27;;
32082;SDS011;18597;48.328;7.932;2023-06-14T02:47:04;6.90;;;5.37;;
32082;SDS011;18597;48.328;7.932;2023-06-14T02:49:30;11.40;;;4.90;;
32082;SDS011;18597;48.328;7.932;2023-06-14T02:51:56;6.00;;;4.67;;
32082;SDS011;18597;48.328;7.932;2023-06-14T02:54:22;6.03;;;5.53;;
32082;SDS011;18597;48.328;7.932;2023-06-14T02:56:47;8.33;;;5.93;;
32082;SDS011;18597;48.328;7.932;2023-06-14T02:59:13;5.57;;;5.20;;
32082;SDS011;18597;48.328;7.932;2023-06-14T03:01:40;16.57;;;6.00;;
32082;SDS011;18597;48.328;7.932;2023-06-14T03:04:07;5.40;;;5.00;;
32082;SDS011;18597;48.328;7.932;2023-06-14T03:06:33;5.60;;;5.10;;
32082;SDS011;18597;48.328;7.932;2023-06-14T03:09:00;5.77;;;5.37;;
32082;SDS011;18597;48.328;7.932;2023-06-14T03:11:29;7.40;;;5.60;;
32082;SDS011;18597;48.328;7.932;2023-06-14T03:13:56;10.77;;;5.00;;
32082;SDS011;18597;48.328;7.932;2023-06-14T03:16:23;6.03;;;5.40;;
32082;SDS011;18597;48.328;7.932;2023-06-14T03:18:49;9.40;;;5.50;;
32082;SDS011;18597;48.328;7.932;2023-06-14T03:21:16;12.80;;;5.73;;
32082;SDS011;18597;48.328;7.932;2023-06-14T03:23:45;6.20;;;5.47;;
32082;SDS011;18597;48.328;7.932;2023-06-14T03:26:11;6.90;;;6.23;;
32082;SDS011;18597;48.328;7.932;2023-06-14T03:28:39;5.90;;;5.57;;
32082;SDS011;18597;48.328;7.932;2023-06-14T03:31:05;5.27;;;4.83;;
32082;SDS011;18597;48.328;7.932;2023-06-14T03:33:31;5.67;;;4.43;;
32082;SDS011;18597;48.328;7.932;2023-06-14T03:35:57;5.77;;;5.17;;
32082;SDS011;18597;48.328;7.932;2023-06-14T03:38:23;6.13;;;5.50;;
32082;SDS011;18597;48.328;7.932;2023-06-14T03:40:49;5.30;;;4.80;;
32082;SDS011;18597;48.328;7.932;2023-06-14T03:43:15;5.83;;;5.23;;
32082;SDS011;18597;48.328;7.932;2023-06-14T03:45:40;5.80;;;4.73;;
32082;SDS011;18597;48.328;7.932;2023-06-14T03:48:06;6.47;;;5.97;;
32082;SDS011;18597;48.328;7.932;2023-06-14T03:50:34;6.17;;;4.83;;
32082;SDS011;18597;48.328;7.932;2023-06-14T03:53:03;6.27;;;5.67;;
32082;SDS011;18597;48.328;7.932;2023-06-14T03:55:29;6.03;;;5.53;;
32082;SDS011;18597;48.328;7.932;2023-06-14T03:57:58;7.70;;;5.47;;
32082;SDS011;18597;48.328;7.932;2023-06-14T04:00:24;6.10;;;5.60;;
32082;SDS011;18597;48.328;7.932;2023-06-14T04:02:50;6.73;;;6.10;;
32082;SDS011;18597;48.328;7.932;2023-06-14T04:05:16;5.57;;;5.03;;
32082;SDS011;18597;48.328;7.932;2023-06-14T04:07:44;5.93;;;5.53;;
32082;SDS011;18597;48.328;7.932;2023-06-14T04:10:11;5.63;;;5.03;;
32082;SDS011;18597;48.328;7.932;2023-06-14T04:12:38;5.57;;;5.20;;
32082;SDS011;18597;48.328;7.932;2023-06-14T04:15:04;7.17;;;5.90;;
32082;SDS011;18597;48.328;7.932;2023-06-14T04:17:31;8.43;;;5.87;;
32082;SDS011;18597;48.328;7.932;2023-06-14T04:19:58;7.43;;;5.47;;
32082;SDS011;18597;48.328;7.932;2023-06-14T04:22:25;6.20;;;5.70;;
32082;SDS011;18597;48.328;7.932;2023-06-14T04:24:53;6.17;;;5.57;;
32082;SDS011;18597;48.328;7.932;2023-06-14T04:27:24;7.30;;;5.20;;
32082;SDS011;18597;48.328;7.932;2023-06-14T04:29:52;11.60;;;5.73;;
32082;SDS011;18597;48.328;7.932;2023-06-14T04:32:23;7.93;;;5.20;;
32082;SDS011;18597;48.328;7.932;2023-06-14T04:34:52;6.40;;;5.83;;
32082;SDS011;18597;48.328;7.932;2023-06-14T04:37:19;9.20;;;5.87;;
32082;SDS011;18597;48.328;7.932;2023-06-14T04:39:47;5.80;;;5.30;;
32082;SDS011;18597;48.328;7.932;2023-06-14T04:42:13;5.23;;;4.83;;
32082;SDS011;18597;48.328;7.932;2023-06-14T04:44:41;7.63;;;5.00;;
32082;SDS011;18597;48.328;7.932;2023-06-14T04:47:08;7.07;;;4.80;;
32082;SDS011;18597;48.328;7.932;2023-06-14T04:49:36;6.60;;;5.00;;
32082;SDS011;18597;48.328;7.932;2023-06-14T04:52:02;5.30;;;4.90;;
32082;SDS011;18597;48.328;7.932;2023-06-14T04:54:28;6.13;;;5.50;;
32082;SDS011;18597;48.328;7.932;2023-06-14T04:56:56;5.27;;;4.80;;
32082;SDS011;18597;48.328;7.932;2023-06-14T04:59:22;9.10;;;5.80;;
32082;SDS011;18597;48.328;7.932;2023-06-14T05:01:48;6.77;;;5.37;;
32082;SDS011;18597;48.328;7.932;2023-06-14T05:04:16;5.97;;;5.53;;
32082;SDS011;18597;48.328;7.932;2023-06-14T05:06:44;5.73;;;5.07;;
32082;SDS011;18597;48.328;7.932;2023-06-14T05:09:10;5.70;;;5.20;;
32082;SDS011;18597;48.328;7.932;2023-06-14T05:11:38;7.00;;;5.90;;
32082;SDS011;18597;48.328;7.932;2023-06-14T05:14:03;6.73;;;5.03;;
32082;SDS011;18597;48.328;7.932;2023-06-14T05:16:31;5.60;;;5.10;;
32082;SDS011;18597;48.328;7.932;2023-06-14T05:18:57;5.37;;;4.73;;
32082;SDS011;18597;48.328;7.932;2023-06-14T05:21:23;5.70;;;5.20;;
32082;SDS011;18597;48.328;7.932;2023-06-14T05:23:49;10.00;;;5.83;;
32082;SDS011;18597;48.328;7.932;2023-06-14T05:26:15;7.83;;;5.90;;
32082;SDS011;18597;48.328;7.932;2023-06-14T05:28:41;5.90;;;5.50;;
32082;SDS011;18597;48.328;7.932;2023-06-14T05:31:07;5.93;;;5.43;;
32082;SDS011;18597;48.328;7.932;2023-06-14T05:33:33;5.50;;;4.93;;
32082;SDS011;18597;48.328;7.932;2023-06-14T05:35:59;5.60;;;5.20;;
32082;SDS011;18597;48.328;7.932;2023-06-14T05:38:25;4.70;;;4.40;;
32082;SDS011;18597;48.328;7.932;2023-06-14T05:40:50;6.13;;;5.10;;
32082;SDS011;18597;48.328;7.932;2023-06-14T05:43:16;6.77;;;4.60;;
32082;SDS011;18597;48.328;7.932;2023-06-14T05:45:42;5.63;;;5.13;;
32082;SDS011;18597;48.328;7.932;2023-06-14T05:48:08;4.60;;;4.40;;
32082;SDS011;18597;48.328;7.932;2023-06-14T05:50:34;4.23;;;4.03;;
32082;SDS011;18597;48.328;7.932;2023-06-14T05:52:59;4.47;;;4.30;;
32082;SDS011;18597;48.328;7.932;2023-06-14T05:55:25;4.10;;;3.90;;
32082;SDS011;18597;48.328;7.932;2023-06-14T05:57:51;7.63;;;4.22;;
32082;SDS011;18597;48.328;7.932;2023-06-14T06:00:17;4.43;;;4.20;;
32082;SDS011;18597;48.328;7.932;2023-06-14T06:02:44;4.43;;;3.83;;
32082;SDS011;18597;48.328;7.932;2023-06-14T06:05:12;4.35;;;4.13;;
32082;SDS011;18597;48.328;7.932;2023-06-14T06:07:40;3.78;;;3.55;;
32082;SDS011;18597;48.328;7.932;2023-06-14T06:10:07;6.22;;;3.97;;
32082;SDS011;18597;48.328;7.932;2023-06-14T06:12:33;8.25;;;3.72;;
32082;SDS011;18597;48.328;7.932;2023-06-14T06:14:59;3.83;;;3.72;;
32082;SDS011;18597;48.328;7.932;2023-06-14T06:17:26;3.33;;;3.22;;
32082;SDS011;18597;48.328;7.932;2023-06-14T06:19:51;5.25;;;3.72;;
32082;SDS011;18597;48.328;7.932;2023-06-14T06:22:17;3.83;;;3.72;;
32082;SDS011;18597;48.328;7.932;2023-06-14T06:24:43;3.80;;;3.60;;
32082;SDS011;18597;48.328;7.932;2023-06-14T06:27:09;4.18;;;3.88;;
32082;SDS011;18597;48.328;7.932;2023-06-14T06:29:35;4.15;;;3.90;;
32082;SDS011;18597;48.328;7.932;2023-06-14T06:32:01;3.40;;;3.30;;
32082;SDS011;18597;48.328;7.932;2023-06-14T06:34:27;3.25;;;3.00;;
32082;SDS011;18597;48.328;7.932;2023-06-14T06:36:53;2.83;;;2.72;;
32082;SDS011;18597;48.328;7.932;2023-06-14T06:39:20;3.58;;;3.17;;
32082;SDS011;18597;48.328;7.932;2023-06-14T06:41:46;2.70;;;2.50;;
32082;SDS011;18597;48.328;7.932;2023-06-14T06:44:11;3.05;;;2.88;;
32082;SDS011;18597;48.328;7.932;2023-06-14T06:46:38;3.15;;;3.03;;
32082;SDS011;18597;48.328;7.932;2023-06-14T06:49:05;3.03;;;2.83;;
32082;SDS011;18597;48.328;7.932;2023-06-14T06:51:32;7.75;;;3.28;;
32082;SDS011;18597;48.328;7.932;2023-06-14T06:53:58;3.60;;;3.50;;
32082;SDS011;18597;48.328;7.932;2023-06-14T06:56:23;8.18;;;5.88;;
32082;SDS011;18597;48.328;7.932;2023-06-14T06:58:50;3.55;;;2.92;;
32082;SDS011;18597;48.328;7.932;2023-06-14T07:01:16;2.55;;;2.55;;
32082;SDS011;18597;48.328;7.932;2023-06-14T07:03:43;3.45;;;3.30;;
32082;SDS011;18597;48.328;7.932;2023-06-14T07:06:09;3.33;;;3.22;;
32082;SDS011;18597;48.328;7.932;2023-06-14T07:08:35;9.10;;;2.72;;
32082;SDS011;18597;48.328;7.932;2023-06-14T07:11:03;4.55;;;3.17;;
32082;SDS011;18597;48.328;7.932;2023-06-14T07:13:30;4.35;;;3.78;;
32082;SDS011;18597;48.328;7.932;2023-06-14T07:15:57;5.45;;;3.42;;
32082;SDS011;18597;48.328;7.932;2023-06-14T07:18:25;4.50;;;3.42;;
32082;SDS011;18597;48.328;7.932;2023-06-14T07:20:52;9.85;;;3.65;;
32082;SDS011;18597;48.328;7.932;2023-06-14T07:23:19;6.00;;;3.50;;
32082;SDS011;18597;48.328;7.932;2023-06-14T07:25:46;5.68;;;3.33;;
32082;SDS011;18597;48.328;7.932;2023-06-14T07:28:11;3.88;;;3.55;;
32082;SDS011;18597;48.328;7.932;2023-06-14T07:30:37;3.25;;;3.08;;
32082;SDS011;18597;48.328;7.932;2023-06-14T07:33:03;4.05;;;3.75;;
32082;SDS011;18597;48.328;7.932;2023-06-14T07:35:29;5.07;;;3.58;;
32082;SDS011;18597;48.328;7.932;2023-06-14T07:37:55;4.30;;;3.95;;
32082;SDS011;18597;48.328;7.932;2023-06-14T07:40:21;20.35;;;4.03;;
32082;SDS011;18597;48.328;7.932;2023-06-14T07:42:46;6.57;;;3.95;;
32082;SDS011;18597;48.328;7.932;2023-06-14T07:45:13;4.78;;;4.40;;
32082;SDS011;18597;48.328;7.932;2023-06-14T07:47:39;7.28;;;6.65;;
32082;SDS011;18597;48.328;7.932;2023-06-14T07:50:05;10.05;;;9.52;;
32082;SDS011;18597;48.328;7.932;2023-06-14T07:52:31;4.25;;;3.88;;
32082;SDS011;18597;48.328;7.932;2023-06-14T07:54:57;3.65;;;3.40;;
32082;SDS011;18597;48.328;7.932;2023-06-14T07:57:23;4.00;;;3.80;;
32082;SDS011;18597;48.328;7.932;2023-06-14T07:59:49;7.65;;;3.00;;
32082;SDS011;18597;48.328;7.932;2023-06-14T08:02:15;4.22;;;3.92;;
32082;SDS011;18597;48.328;7.932;2023-06-14T08:04:41;3.70;;;3.50;;
32082;SDS011;18597;48.328;7.932;2023-06-14T08:07:07;7.65;;;4.30;;
32082;SDS011;18597;48.328;7.932;2023-06-14T08:09:35;3.65;;;3.45;;
32082;SDS011;18597;48.328;7.932;2023-06-14T08:12:04;3.78;;;3.58;;
32082;SDS011;18597;48.328;7.932;2023-06-14T08:14:33;3.03;;;2.92;;
32082;SDS011;18597;48.328;7.932;2023-06-14T08:16:59;3.83;;;3.30;;
32082;SDS011;18597;48.328;7.932;2023-06-14T08:19:25;5.10;;;3.25;;
32082;SDS011;18597;48.328;7.932;2023-06-14T08:21:50;11.25;;;3.70;;
32082;SDS011;18597;48.328;7.932;2023-06-14T08:24:16;4.00;;;3.80;;
32082;SDS011;18597;48.328;7.932;2023-06-14T08:26:43;3.97;;;3.67;;
32082;SDS011;18597;48.328;7.932;2023-06-14T08:29:09;4.47;;;4.05;;
32082;SDS011;18597;48.328;7.932;2023-06-14T08:31:35;7.22;;;3.08;;
32082;SDS011;18597;48.328;7.932;2023-06-14T08:34:01;3.25;;;2.75;;
32082;SDS011;18597;48.328;7.932;2023-06-14T08:36:27;7.53;;;3.10;;
32082;SDS011;18597;48.328;7.932;2023-06-14T08:38:53;4.60;;;2.85;;
32082;SDS011;18597;48.328;7.932;2023-06-14T08:41:20;2.85;;;2.75;;
32082;SDS011;18597;48.328;7.932;2023-06-14T08:43:52;3.03;;;2.83;;
32082;SDS011;18597;48.328;7.932;2023-06-14T08:46:18;3.08;;;2.88;;
32082;SDS011;18597;48.328;7.932;2023-06-14T08:48:46;6.43;;;2.90;;
32082;SDS011;18597;48.328;7.932;2023-06-14T08:51:15;3.42;;;3.28;;
32082;SDS011;18597;48.328;7.932;2023-06-14T08:53:46;5.15;;;3.38;;
32082;SDS011;18597;48.328;7.932;2023-06-14T08:56:22;3.25;;;2.88;;
32082;SDS011;18597;48.328;7.932;2023-06-14T08:58:52;2.75;;;2.45;;
32082;SDS011;18597;48.328;7.932;2023-06-14T09:01:19;3.03;;;3.03;;
32082;SDS011;18597;48.328;7.932;2023-06-14T09:03:46;4.80;;;3.42;;
32082;SDS011;18597;48.328;7.932;2023-06-14T09:06:14;3.13;;;2.83;;
32082;SDS011;18597;48.328;7.932;2023-06-14T09:08:44;5.80;;;3.28;;
32082;SDS011;18597;48.328;7.932;2023-06-14T09:11:12;3.90;;;2.67;;
32082;SDS011;18597;48.328;7.932;2023-06-14T09:13:40;3.25;;;3.05;;
32082;SDS011;18597;48.328;7.932;2023-06-14T09:16:07;3.38;;;3.28;;
32082;SDS011;18597;48.328;7.932;2023-06-14T09:18:42;2.80;;;2.80;;
32082;SDS011;18597;48.328;7.932;2023-06-14T09:21:13;2.97;;;2.88;;
32082;SDS011;18597;48.328;7.932;2023-06-14T09:23:42;3.40;;;3.10;;
32082;SDS011;18597;48.328;7.932;2023-06-14T09:26:11;5.10;;;3.33;;
32082;SDS011;18597;48.328;7.932;2023-06-14T09:28:41;3.85;;;3.53;;
32082;SDS011;18597;48.328;7.932;2023-06-14T09:31:10;5.47;;;4.97;;
32082;SDS011;18597;48.328;7.932;2023-06-14T09:33:37;3.63;;;3.43;;
32082;SDS011;18597;48.328;7.932;2023-06-14T09:36:04;4.50;;;3.90;;
32082;SDS011;18597;48.328;7.932;2023-06-14T09:38:34;4.30;;;4.00;;
32082;SDS011;18597;48.328;7.932;2023-06-14T09:41:00;8.73;;;5.00;;
32082;SDS011;18597;48.328;7.932;2023-06-14T09:43:29;6.17;;;4.43;;
32082;SDS011;18597;48.328;7.932;2023-06-14T09:45:58;9.60;;;4.97;;
32082;SDS011;18597;48.328;7.932;2023-06-14T09:48:26;5.40;;;3.90;;
32082;SDS011;18597;48.328;7.932;2023-06-14T09:50:52;4.70;;;4.30;;
32082;SDS011;18597;48.328;7.932;2023-06-14T09:53:22;6.50;;;4.40;;
32082;SDS011;18597;48.328;7.932;2023-06-14T09:55:49;5.50;;;4.50;;
32082;SDS011;18597;48.328;7.932;2023-06-14T09:58:20;4.97;;;4.67;;
32082;SDS011;18597;48.328;7.932;2023-06-14T10:00:51;6.43;;;5.80;;
32082;SDS011;18597;48.328;7.932;2023-06-14T10:03:20;6.90;;;4.00;;
32082;SDS011;18597;48.328;7.932;2023-06-14T10:05:52;10.70;;;4.87;;
32082;SDS011;18597;48.328;7.932;2023-06-14T10:08:24;11.27;;;4.83;;
32082;SDS011;18597;48.328;7.932;2023-06-14T10:10:53;4.27;;;3.97;;
32082;SDS011;18597;48.328;7.932;2023-06-14T10:13:21;5.03;;;4.67;;
32082;SDS011;18597;48.328;7.932;2023-06-14T10:15:52;5.43;;;4.90;;
32082;SDS011;18597;48.328;7.932;2023-06-14T10:21:58;4.53;;;4.13;;
32082;SDS011;18597;48.328;7.932;2023-06-14T10:24:38;8.73;;;4.83;;
32082;SDS011;18597;48.328;7.932;2023-06-14T10:27:08;4.93;;;4.73;;
32082;SDS011;18597;48.328;7.932;2023-06-14T10:29:48;4.33;;;4.23;;
32082;SDS011;18597;48.328;7.932;2023-06-14T10:32:31;4.80;;;4.50;;
32082;SDS011;18597;48.328;7.932;2023-06-14T10:34:59;4.17;;;4.07;;
32082;SDS011;18597;48.328;7.932;2023-06-14T10:37:29;4.70;;;4.07;;
32082;SDS011;18597;48.328;7.932;2023-06-14T10:39:55;4.30;;;4.10;;
32082;SDS011;18597;48.328;7.932;2023-06-14T10:42:21;4.70;;;4.30;;
32082;SDS011;18597;48.328;7.932;2023-06-14T10:44:54;10.13;;;4.50;;
32082;SDS011;18597;48.328;7.932;2023-06-14T10:47:25;10.20;;;5.03;;
32082;SDS011;18597;48.328;7.932;2023-06-14T10:49:58;4.53;;;4.13;;
32082;SDS011;18597;48.328;7.932;2023-06-14T10:52:34;6.03;;;4.30;;
32082;SDS011;18597;48.328;7.932;2023-06-14T10:55:14;10.73;;;4.53;;
32082;SDS011;18597;48.328;7.932;2023-06-14T10:57:43;4.40;;;3.93;;
32082;SDS011;18597;48.328;7.932;2023-06-14T11:00:11;5.83;;;4.30;;
32082;SDS011;18597;48.328;7.932;2023-06-14T11:02:51;4.60;;;4.33;;
32082;SDS011;18597;48.328;7.932;2023-06-14T11:05:56;11.40;;;4.03;;
32082;SDS011;18597;48.328;7.932;2023-06-14T11:11:01;4.77;;;4.47;;
32082;SDS011;18597;48.328;7.932;2023-06-14T11:13:32;4.50;;;4.20;;
32082;SDS011;18597;48.328;7.932;2023-06-14T11:15:59;3.97;;;3.70;;
32082;SDS011;18597;48.328;7.932;2023-06-14T11:18:25;4.40;;;4.00;;
32082;SDS011;18597;48.328;7.932;2023-06-14T11:20:52;6.60;;;4.77;;
32082;SDS011;18597;48.328;7.932;2023-06-14T11:23:18;5.30;;;4.80;;
32082;SDS011;18597;48.328;7.932;2023-06-14T11:25:52;6.10;;;5.70;;
32082;SDS011;18597;48.328;7.932;2023-06-14T11:28:18;4.60;;;4.20;;
32082;SDS011;18597;48.328;7.932;2023-06-14T11:30:46;5.20;;;4.70;;
32082;SDS011;18597;48.328;7.932;2023-06-14T11:33:17;8.53;;;4.70;;
32082;SDS011;18597;48.328;7.932;2023-06-14T11:35:44;5.30;;;4.77;;
32082;SDS011;18597;48.328;7.932;2023-06-14T11:38:10;5.40;;;4.50;;
32082;SDS011;18597;48.328;7.932;2023-06-14T11:40:37;4.87;;;4.37;;
32082;SDS011;18597;48.328;7.932;2023-06-14T11:43:04;4.90;;;4.60;;
32082;SDS011;18597;48.328;7.932;2023-06-14T11:45:30;11.33;;;4.80;;
32082;SDS011;18597;48.328;7.932;2023-06-14T11:47:56;8.20;;;4.50;;
32082;SDS011;18597;48.328;7.932;2023-06-14T11:50:24;4.77;;;4.30;;
32082;SDS011;18597;48.328;7.932;2023-06-14T11:52:58;5.00;;;3.87;;
32082;SDS011;18597;48.328;7.932;2023-06-14T11:55:31;4.47;;;4.17;;
32082;SDS011;18597;48.328;7.932;2023-06-14T11:58:03;6.30;;;4.73;;
32082;SDS011;18597;48.328;7.932;2023-06-14T12:00:29;4.40;;;3.97;;
32082;SDS011;18597;48.328;7.932;2023-06-14T12:02:56;5.20;;;4.97;;
32082;SDS011;18597;48.328;7.932;2023-06-14T12:05:22;4.33;;;4.00;;
32082;SDS011;18597;48.328;7.932;2023-06-14T12:07:57;4.93;;;4.33;;
32082;SDS011;18597;48.328;7.932;2023-06-14T12:10:25;6.80;;;4.07;;
32082;SDS011;18597;48.328;7.932;2023-06-14T12:12:56;8.93;;;4.67;;
32082;SDS011;18597;48.328;7.932;2023-06-14T12:15:24;4.60;;;4.20;;
32082;SDS011;18597;48.328;7.932;2023-06-14T12:17:53;7.40;;;4.67;;
32082;SDS011;18597;48.328;7.932;2023-06-14T12:20:19;6.80;;;4.73;;
32082;SDS011;18597;48.328;7.932;2023-06-14T12:22:50;8.07;;;4.37;;
32082;SDS011;18597;48.328;7.932;2023-06-14T12:25:28;4.93;;;4.53;;
32082;SDS011;18597;48.328;7.932;2023-06-14T12:27:57;8.67;;;4.27;;
32082;SDS011;18597;48.328;7.932;2023-06-14T12:30:24;5.67;;;4.80;;
32082;SDS011;18597;48.328;7.932;2023-06-14T12:32:50;7.30;;;4.73;;
32082;SDS011;18597;48.328;7.932;2023-06-14T12:35:17;5.90;;;5.40;;
32082;SDS011;18597;48.328;7.932;2023-06-14T12:37:45;4.30;;;4.00;;
32082;SDS011;18597;48.328;7.932;2023-06-14T12:40:11;9.60;;;4.40;;
32082;SDS011;18597;48.328;7.932;2023-06-14T12:42:38;6.93;;;4.73;;
32082;SDS011;18597;48.328;7.932;2023-06-14T12:45:04;4.70;;;4.50;;
32082;SDS011;18597;48.328;7.932;2023-06-14T12:47:30;7.03;;;5.50;;
32082;SDS011;18597;48.328;7.932;2023-06-14T12:49:56;6.40;;;4.67;;
32082;SDS011;18597;48.328;7.932;2023-06-14T12:52:21;4.57;;;3.90;;
32082;SDS011;18597;48.328;7.932;2023-06-14T12:54:47;4.17;;;3.97;;
32082;SDS011;18597;48.328;7.932;2023-06-14T12:57:13;4.53;;;4.23;;
32082;SDS011;18597;48.328;7.932;2023-06-14T12:59:39;5.20;;;4.53;;
32082;SDS011;18597;48.328;7.932;2023-06-14T13:02:20;11.20;;;3.93;;
32082;SDS011;18597;48.328;7.932;2023-06-14T13:04:47;6.23;;;4.10;;
32082;SDS011;18597;48.328;7.932;2023-06-14T13:07:13;7.13;;;3.80;;
32082;SDS011;18597;48.328;7.932;2023-06-14T13:09:40;6.23;;;5.30;;
32082;SDS011;18597;48.328;7.932;2023-06-14T13:12:07;4.10;;;3.90;;
32082;SDS011;18597;48.328;7.932;2023-06-14T13:14:36;7.67;;;4.80;;
32082;SDS011;18597;48.328;7.932;2023-06-14T13:17:03;6.03;;;4.27;;
32082;SDS011;18597;48.328;7.932;2023-06-14T13:19:29;8.97;;;4.70;;
32082;SDS011;18597;48.328;7.932;2023-06-14T13:21:55;4.43;;;4.13;;
32082;SDS011;18597;48.328;7.932;2023-06-14T13:24:21;4.33;;;4.13;;
32082;SDS011;18597;48.328;7.932;2023-06-14T13:26:46;6.93;;;4.40;;
32082;SDS011;18597;48.328;7.932;2023-06-14T13:29:12;6.37;;;5.03;;
32082;SDS011;18597;48.328;7.932;2023-06-14T13:31:38;6.90;;;4.20;;
32082;SDS011;18597;48.328;7.932;2023-06-14T13:34:04;5.70;;;4.80;;
32082;SDS011;18597;48.328;7.932;2023-06-14T13:36:31;5.00;;;4.40;;
32082;SDS011;18597;48.328;7.932;2023-06-14T13:38:57;4.87;;;4.67;;
32082;SDS011;18597;48.328;7.932;2023-06-14T13:41:25;15.03;;;4.70;;
32082;SDS011;18597;48.328;7.932;2023-06-14T13:43:58;4.63;;;3.87;;
32082;SDS011;18597;48.328;7.932;2023-06-14T13:46:25;4.37;;;4.07;;
32082;SDS011;18597;48.328;7.932;2023-06-14T13:48:51;4.30;;;4.00;;
32082;SDS011;18597;48.328;7.932;2023-06-14T13:51:17;4.30;;;4.00;;
32082;SDS011;18597;48.328;7.932;2023-06-14T13:53:46;5.07;;;4.57;;
32082;SDS011;18597;48.328;7.932;2023-06-14T13:56:13;4.37;;;4.07;;
32082;SDS011;18597;48.328;7.932;2023-06-14T13:58:40;6.60;;;4.50;;
32082;SDS011;18597;48.328;7.932;2023-06-14T14:01:06;21.63;;;7.17;;
32082;SDS011;18597;48.328;7.932;2023-06-14T14:03:32;6.37;;;5.97;;
32082;SDS011;18597;48.328;7.932;2023-06-14T14:05:58;10.43;;;5.97;;
32082;SDS011;18597;48.328;7.932;2023-06-14T14:08:25;11.73;;;7.30;;
32082;SDS011;18597;48.328;7.932;2023-06-14T14:10:51;4.57;;;4.17;;
32082;SDS011;18597;48.328;7.932;2023-06-14T14:13:17;4.83;;;4.53;;
32082;SDS011;18597;48.328;7.932;2023-06-14T14:15:42;11.77;;;5.90;;
32082;SDS011;18597;48.328;7.932;2023-06-14T14:18:08;6.43;;;4.30;;
32082;SDS011;18597;48.328;7.932;2023-06-14T14:20:34;11.30;;;8.70;;
32082;SDS011;18597;48.328;7.932;2023-06-14T14:23:00;9.83;;;4.80;;
32082;SDS011;18597;48.328;7.932;2023-06-14T14:25:27;4.40;;;4.20;;
32082;SDS011;18597;48.328;7.932;2023-06-14T14:27:53;8.13;;;4.57;;
32082;SDS011;18597;48.328;7.932;2023-06-14T14:30:19;6.67;;;4.83;;
32082;SDS011;18597;48.328;7.932;2023-06-14T14:32:48;7.70;;;4.63;;
32082;SDS011;18597;48.328;7.932;2023-06-14T14:35:16;7.43;;;4.60;;
32082;SDS011;18597;48.328;7.932;2023-06-14T14:37:42;6.60;;;4.90;;
32082;SDS011;18597;48.328;7.932;2023-06-14T14:40:09;10.03;;;4.93;;
32082;SDS011;18597;48.328;7.932;2023-06-14T14:42:35;5.67;;;5.10;;
32082;SDS011;18597;48.328;7.932;2023-06-14T14:45:02;5.37;;;4.23;;
32082;SDS011;18597;48.328;7.932;2023-06-14T14:47:28;9.23;;;4.80;;
32082;SDS011;18597;48.328;7.932;2023-06-14T14:49:54;5.03;;;4.73;;
32082;SDS011;18597;48.328;7.932;2023-06-14T14:52:20;10.60;;;5.03;;
32082;SDS011;18597;48.328;7.932;2023-06-14T14:54:46;11.93;;;5.53;;